Time;durP1;ratioP1;P1;durP2;ratioP2;P2;SDS_P1;SDS_P2;PMS_P1;PMS_P2;Temp;Humidity;BMP_temperature;BMP_pressure;BME280_temperature;BME280_humidity;BME280_pressure;Samples;Min_cycle;Max_cycle;Signal;HPM_P1;HPM_P2
2023/02/06 05:03:43;;;;;;;19.52;11.40;;;2.90;99.90;;;;;;6207325;22;20339;-84
2023/02/06 05:06:09;;;;;;;15.43;10.52;;;2.90;99.90;;;;;;4972045;28;20299;-70
2023/02/06 05:08:35;;;;;;;15.63;12.17;;;2.90;99.90;;;;;;4974794;28;20311;-69
2023/02/06 05:11:00;;;;;;;19.87;13.57;;;2.90;99.90;;;;;;4974934;28;20179;-67
2023/02/06 05:13:26;;;;;;;18.67;12.90;;;2.90;99.90;;;;;;4974510;28;20681;-68
2023/02/06 05:15:51;;;;;;;14.40;10.23;;;2.90;99.90;;;;;;4955593;28;20177;-68
2023/02/06 05:18:17;;;;;;;19.77;12.50;;;2.80;99.90;;;;;;4955487;28;20176;-69
2023/02/06 05:20:43;;;;;;;23.37;12.93;;;2.80;99.90;;;;;;4970084;28;20177;-69
2023/02/06 05:23:09;;;;;;;15.88;11.20;;;2.80;99.90;;;;;;4955018;28;20176;-68
2023/02/06 05:25:35;;;;;;;13.40;11.00;;;2.80;99.90;;;;;;4954958;28;20671;-68
2023/02/06 05:28:05;;;;;;;15.85;11.73;;;2.80;99.90;;;;;;4970013;28;20181;-68
2023/02/06 05:30:31;;;;;;;15.98;11.60;;;2.80;99.90;;;;;;4955153;28;20227;-68
2023/02/06 05:32:56;;;;;;;16.48;11.20;;;2.80;99.90;;;;;;4954335;28;20635;-70
2023/02/06 05:35:23;;;;;;;16.60;11.67;;;2.80;99.90;;;;;;4953723;28;20204;-69
2023/02/06 05:37:49;;;;;;;13.00;9.38;;;2.80;99.90;;;;;;4954888;28;20188;-69
2023/02/06 05:40:15;;;;;;;21.53;14.27;;;2.80;99.90;;;;;;4955205;28;20240;-69
2023/02/06 05:42:41;;;;;;;16.88;11.57;;;2.70;99.90;;;;;;4970005;28;20184;-68
2023/02/06 05:45:07;;;;;;;25.37;11.90;;;2.70;99.90;;;;;;4954449;28;20570;-69
2023/02/06 05:47:33;;;;;;;21.83;12.82;;;2.70;99.90;;;;;;4955121;28;20169;-68
2023/02/06 05:49:58;;;;;;;14.30;10.60;;;2.70;99.90;;;;;;4954980;28;20180;-69
2023/02/06 05:52:24;;;;;;;19.23;13.50;;;2.70;99.90;;;;;;4954831;28;20523;-69
2023/02/06 05:54:49;;;;;;;15.33;11.13;;;2.60;99.90;;;;;;4969399;28;20193;-67
2023/02/06 05:57:15;;;;;;;18.83;12.47;;;2.70;99.90;;;;;;4955249;28;20528;-66
2023/02/06 05:59:40;;;;;;;18.33;11.57;;;2.70;99.90;;;;;;4955083;28;20173;-67
2023/02/06 06:02:06;;;;;;;20.33;14.20;;;2.70;99.90;;;;;;4953954;28;20665;-69
2023/02/06 06:04:32;;;;;;;18.00;13.90;;;2.70;99.90;;;;;;4952179;28;20204;-67
2023/02/06 06:06:57;;;;;;;17.87;12.07;;;2.70;99.90;;;;;;4952182;29;20205;-67
2023/02/06 06:09:23;;;;;;;16.57;10.23;;;2.70;99.90;;;;;;4952822;29;20177;-68
2023/02/06 06:11:50;;;;;;;12.80;10.27;;;2.70;99.90;;;;;;4952882;29;20289;-67
2023/02/06 06:14:16;;;;;;;17.90;13.10;;;2.70;99.90;;;;;;4952577;28;20192;-66
2023/02/06 06:16:41;;;;;;;19.07;11.30;;;2.70;99.90;;;;;;4952872;28;20223;-70
2023/02/06 06:19:07;;;;;;;17.33;10.60;;;2.70;99.90;;;;;;4957324;29;20909;-65
2023/02/06 06:21:33;;;;;;;15.17;10.50;;;2.70;99.90;;;;;;4958465;29;20173;-66
2023/02/06 06:23:59;;;;;;;18.43;10.43;;;2.70;99.90;;;;;;4958050;28;20985;-66
2023/02/06 06:26:25;;;;;;;21.02;11.63;;;2.60;99.90;;;;;;4958327;29;20555;-67
2023/02/06 06:28:50;;;;;;;16.90;13.10;;;2.60;99.90;;;;;;4958312;29;20169;-69
2023/02/06 06:31:16;;;;;;;14.30;11.30;;;2.70;99.90;;;;;;4958224;29;20188;-66
2023/02/06 06:33:42;;;;;;;15.30;10.97;;;2.70;99.90;;;;;;4956588;28;20180;-66
2023/02/06 06:36:09;;;;;;;16.33;11.27;;;2.60;99.90;;;;;;4958123;29;20468;-67
2023/02/06 06:38:35;;;;;;;17.52;10.95;;;2.60;99.90;;;;;;4958157;29;20408;-67
2023/02/06 06:41:02;;;;;;;22.65;11.40;;;2.60;99.90;;;;;;4958177;28;20173;-67
2023/02/06 06:43:27;;;;;;;14.23;10.27;;;2.60;99.90;;;;;;4957645;28;20534;-69
2023/02/06 06:45:53;;;;;;;15.57;11.67;;;2.60;99.90;;;;;;4957826;28;20276;-65
2023/02/06 06:48:19;;;;;;;15.13;11.83;;;2.60;99.90;;;;;;4957821;29;20251;-66
2023/02/06 06:50:44;;;;;;;16.53;12.60;;;2.60;99.90;;;;;;4957157;28;20639;-65
2023/02/06 06:53:10;;;;;;;17.13;12.07;;;2.60;99.90;;;;;;4957366;28;20192;-67
2023/02/06 06:55:35;;;;;;;20.27;12.77;;;2.60;99.90;;;;;;4957543;28;20192;-66
2023/02/06 06:58:01;;;;;;;16.80;12.13;;;2.60;99.90;;;;;;4938934;28;20583;-65
2023/02/06 07:00:26;;;;;;;18.73;12.27;;;2.60;99.90;;;;;;4938406;29;20169;-65
2023/02/06 07:02:52;;;;;;;14.97;9.70;;;2.60;99.90;;;;;;4938063;29;20217;-66
2023/02/06 07:05:18;;;;;;;17.10;12.20;;;2.60;99.90;;;;;;4938380;29;20706;-65
2023/02/06 07:07:43;;;;;;;17.77;12.07;;;2.60;99.90;;;;;;4938316;29;20895;-65
2023/02/06 07:10:10;;;;;;;16.30;9.33;;;2.60;99.90;;;;;;4955251;29;20169;-65
2023/02/06 07:12:36;;;;;;;19.45;11.35;;;2.60;99.90;;;;;;4957367;28;20228;-65
2023/02/06 07:15:03;;;;;;;17.80;10.27;;;2.60;99.90;;;;;;4956878;28;20671;-65
2023/02/06 07:17:30;;;;;;;16.08;10.38;;;2.60;99.90;;;;;;4957463;28;20197;-65
2023/02/06 07:19:55;;;;;;;19.47;12.27;;;2.60;99.90;;;;;;4957282;28;20224;-64
2023/02/06 07:22:21;;;;;;;16.50;11.67;;;2.70;99.90;;;;;;4957496;28;20169;-65
2023/02/06 07:24:47;;;;;;;14.53;10.77;;;2.70;99.90;;;;;;4956692;28;20189;-66
2023/02/06 07:27:13;;;;;;;22.70;12.03;;;2.70;99.90;;;;;;4956871;28;20486;-65
2023/02/06 07:29:38;;;;;;;17.07;11.07;;;2.70;99.90;;;;;;4952486;28;20406;-66
2023/02/06 07:32:05;;;;;;;15.83;10.10;;;2.80;99.90;;;;;;4954242;29;20180;-66
2023/02/06 07:34:30;;;;;;;18.50;12.13;;;2.80;99.90;;;;;;4955182;28;20200;-64
2023/02/06 07:36:58;;;;;;;17.03;10.47;;;2.80;99.90;;;;;;4956809;28;20707;-66
2023/02/06 07:39:24;;;;;;;13.15;10.82;;;2.80;99.90;;;;;;4956336;28;20180;-65
2023/02/06 07:41:50;;;;;;;14.98;10.80;;;2.80;99.90;;;;;;4956785;28;20188;-68
2023/02/06 07:44:15;;;;;;;13.53;9.37;;;2.80;99.90;;;;;;4955556;28;20197;-67
2023/02/06 07:46:42;;;;;;;14.10;9.37;;;2.90;99.90;;;;;;4956627;29;20201;-71
2023/02/06 07:49:08;;;;;;;11.20;8.82;;;2.90;99.90;;;;;;4956786;28;20340;-68
2023/02/06 07:51:34;;;;;;;10.53;6.47;;;2.90;99.90;;;;;;4955504;29;20671;-68
2023/02/06 07:53:59;;;;;;;11.23;9.43;;;2.90;99.90;;;;;;4956304;28;20181;-66
2023/02/06 07:56:25;;;;;;;9.67;8.33;;;2.90;99.90;;;;;;4956168;28;20547;-64
2023/02/06 07:58:53;;;;;;;20.10;7.40;;;2.90;99.90;;;;;;4956651;28;20201;-68
2023/02/06 08:01:22;;;;;;;7.45;6.75;;;2.90;99.90;;;;;;4952997;28;20540;-68
2023/02/06 08:03:52;;;;;;;12.73;7.10;;;2.90;99.90;;;;;;4935627;29;20671;-67
2023/02/06 08:06:20;;;;;;;8.63;7.65;;;2.90;99.90;;;;;;4937306;29;20213;-68
2023/02/06 08:08:46;;;;;;;13.60;8.43;;;2.90;99.90;;;;;;4947398;29;20208;-68
2023/02/06 08:11:14;;;;;;;8.00;6.05;;;2.90;99.90;;;;;;4947258;28;20532;-68
2023/02/06 08:13:41;;;;;;;6.72;5.28;;;2.90;99.90;;;;;;4936713;29;20165;-65
2023/02/06 08:16:11;;;;;;;9.60;7.85;;;3.00;99.90;;;;;;4937045;29;20640;-68
2023/02/06 08:18:37;;;;;;;7.57;6.72;;;3.00;99.90;;;;;;4951762;29;20543;-68
2023/02/06 08:21:05;;;;;;;12.70;6.47;;;3.00;99.90;;;;;;4956346;28;20259;-69
2023/02/06 08:23:31;;;;;;;10.85;7.35;;;3.00;99.90;;;;;;4945737;28;20448;-69
2023/02/06 08:26:07;;;;;;;6.80;5.70;;;3.00;99.90;;;;;;4937100;29;20542;-67
2023/02/06 08:28:36;;;;;;;7.20;6.05;;;3.00;99.90;;;;;;4936953;29;20169;-67
2023/02/06 08:31:12;;;;;;;9.27;7.22;;;3.00;99.90;;;;;;4936820;29;20174;-68
2023/02/06 08:33:38;;;;;;;8.20;6.57;;;3.10;99.90;;;;;;4936670;29;20181;-68
2023/02/06 08:36:04;;;;;;;8.80;7.00;;;3.10;99.90;;;;;;4936957;29;20174;-68
2023/02/06 08:38:30;;;;;;;9.75;6.15;;;3.10;99.90;;;;;;4953649;29;20184;-69
2023/02/06 08:40:55;;;;;;;12.53;7.60;;;3.10;99.90;;;;;;4955201;28;20638;-69
2023/02/06 08:43:21;;;;;;;11.00;7.33;;;3.10;99.90;;;;;;4972342;28;20177;-67
2023/02/06 08:45:49;;;;;;;6.13;5.57;;;3.10;99.90;;;;;;4955551;28;20200;-65
2023/02/06 08:48:16;;;;;;;6.88;5.53;;;3.10;99.90;;;;;;4955454;28;20172;-68
2023/02/06 08:50:42;;;;;;;8.68;7.10;;;3.10;99.90;;;;;;4955768;28;20248;-68
2023/02/06 08:53:07;;;;;;;6.22;5.60;;;3.10;99.90;;;;;;4955233;29;20185;-66
2023/02/06 08:55:33;;;;;;;6.87;5.40;;;3.10;99.90;;;;;;4955549;29;20201;-68
2023/02/06 08:57:58;;;;;;;7.43;6.07;;;3.20;99.90;;;;;;4955224;29;20575;-67
2023/02/06 09:00:24;;;;;;;7.90;4.43;;;3.20;99.90;;;;;;4936618;28;20253;-70
2023/02/06 09:02:53;;;;;;;6.60;5.70;;;3.30;99.90;;;;;;4936132;29;20185;-71
2023/02/06 09:05:20;;;;;;;6.63;5.85;;;3.30;99.90;;;;;;4938426;29;20205;-70
2023/02/06 09:07:46;;;;;;;8.30;5.93;;;3.30;99.90;;;;;;4954140;28;20187;-71
2023/02/06 09:10:12;;;;;;;9.00;5.70;;;3.20;99.90;;;;;;4955840;28;20165;-71
2023/02/06 09:12:38;;;;;;;7.03;5.05;;;3.20;99.90;;;;;;4941823;28;20428;-69
2023/02/06 09:15:04;;;;;;;11.80;5.60;;;3.10;99.90;;;;;;4936056;29;20651;-70
2023/02/06 09:17:30;;;;;;;6.20;4.85;;;3.10;99.90;;;;;;4936458;29;20178;-69
2023/02/06 09:20:00;;;;;;;8.53;7.03;;;3.00;99.90;;;;;;4936600;29;20228;-70
2023/02/06 09:22:26;;;;;;;7.65;6.80;;;3.00;99.90;;;;;;4939853;29;20416;-70
2023/02/06 09:24:52;;;;;;;7.10;6.28;;;3.00;99.90;;;;;;4939557;29;20196;-69
2023/02/06 09:27:18;;;;;;;6.90;5.10;;;3.10;99.90;;;;;;4940441;29;20169;-69
2023/02/06 09:29:44;;;;;;;5.03;4.37;;;3.10;99.90;;;;;;4955490;28;20531;-68
2023/02/06 09:32:09;;;;;;;5.90;5.00;;;3.10;99.90;;;;;;4938383;29;20468;-69
2023/02/06 09:34:36;;;;;;;8.83;7.50;;;3.10;99.90;;;;;;4937809;29;20203;-70
2023/02/06 09:37:03;;;;;;;7.10;4.03;;;3.20;99.90;;;;;;4936932;29;20237;-71
2023/02/06 09:39:29;;;;;;;8.98;5.53;;;3.20;99.90;;;;;;4936159;29;20180;-72
2023/02/06 09:42:21;;;;;;;7.93;5.40;;;3.20;99.90;;;;;;4936201;29;20528;-70
2023/02/06 09:45:00;;;;;;;4.78;4.18;;;3.20;99.90;;;;;;4941774;29;20223;-71
2023/02/06 09:47:29;;;;;;;6.15;5.03;;;3.20;99.90;;;;;;4956001;28;20184;-67
2023/02/06 09:50:01;;;;;;;4.53;4.10;;;3.20;99.90;;;;;;4955710;28;20172;-66
2023/02/06 09:52:49;;;;;;;5.50;4.97;;;3.20;99.90;;;;;;4953494;28;20165;-67
2023/02/06 09:55:41;;;;;;;4.68;4.20;;;3.30;99.90;;;;;;4955338;28;20672;-67
2023/02/06 09:58:24;;;;;;;4.35;3.42;;;3.40;99.90;;;;;;4939716;29;20241;-66
2023/02/06 10:01:02;;;;;;;7.20;4.95;;;3.40;99.90;;;;;;4939743;29;20575;-68
2023/02/06 10:04:08;;;;;;;6.32;4.25;;;3.40;99.90;;;;;;4939887;29;20177;-69
2023/02/06 10:06:51;;;;;;;3.92;3.47;;;3.50;99.90;;;;;;4955671;28;20287;-67
2023/02/06 10:09:24;;;;;;;6.35;4.28;;;3.60;99.90;;;;;;4954589;29;20181;-66
2023/02/06 10:11:57;;;;;;;4.07;3.72;;;3.60;99.90;;;;;;4958150;29;20211;-66
2023/02/06 10:14:52;;;;;;;6.43;5.28;;;3.70;99.90;;;;;;4955297;28;20194;-66
2023/02/06 10:17:28;;;;;;;3.92;2.50;;;3.80;99.90;;;;;;4957236;28;20170;-67
2023/02/06 10:20:25;;;;;;;2.92;2.72;;;3.80;99.90;;;;;;4957871;28;20245;-66
2023/02/06 10:23:05;;;;;;;9.68;2.90;;;3.90;99.90;;;;;;4942490;29;20186;-66
2023/02/06 10:25:42;;;;;;;3.65;2.05;;;3.90;99.90;;;;;;4949188;29;20206;-66
2023/02/06 10:28:24;;;;;;;3.10;2.80;;;3.80;99.90;;;;;;4958075;28;20648;-66
2023/02/06 10:30:53;;;;;;;2.50;2.40;;;3.70;99.90;;;;;;4957685;28;20265;-66
2023/02/06 10:33:34;;;;;;;5.10;2.42;;;3.70;99.90;;;;;;4957907;28;20226;-65
2023/02/06 10:36:09;;;;;;;3.20;2.90;;;3.90;99.90;;;;;;4957558;28;20185;-66
2023/02/06 10:39:06;;;;;;;2.80;2.60;;;3.90;99.90;;;;;;4958235;28;20176;-68
2023/02/06 10:42:10;;;;;;;2.40;2.20;;;3.90;99.90;;;;;;4957968;28;20161;-75
2023/02/06 10:44:50;;;;;;;3.67;2.80;;;3.90;99.90;;;;;;4956241;28;20220;-70
2023/02/06 10:47:31;;;;;;;2.20;2.00;;;3.90;99.90;;;;;;4957889;28;20193;-69
2023/02/06 10:50:27;;;;;;;3.53;2.53;;;4.00;99.90;;;;;;4957725;28;20256;-67
2023/02/06 10:52:56;;;;;;;3.47;2.58;;;3.90;99.90;;;;;;4956786;29;20543;-68
2023/02/06 10:55:42;;;;;;;2.50;2.30;;;4.00;99.90;;;;;;4957315;28;20193;-68
2023/02/06 10:58:26;;;;;;;4.97;2.78;;;4.00;99.90;;;;;;4958215;28;20228;-67
2023/02/06 11:00:53;;;;;;;2.40;1.80;;;4.00;99.90;;;;;;4957862;28;20170;-66
2023/02/06 11:03:22;;;;;;;3.22;2.63;;;4.00;99.90;;;;;;4956586;28;20170;-67
2023/02/06 11:05:48;;;;;;;2.38;2.13;;;4.10;99.90;;;;;;4957257;28;20214;-66
2023/02/06 11:08:49;;;;;;;3.17;2.92;;;4.10;99.90;;;;;;4957582;28;20179;-65
2023/02/06 11:11:30;;;;;;;2.67;2.47;;;4.20;99.90;;;;;;4956555;28;20289;-69
2023/02/06 11:14:09;;;;;;;2.55;2.00;;;4.20;99.90;;;;;;4957112;28;20188;-69
2023/02/06 11:16:36;;;;;;;3.17;2.88;;;4.20;99.90;;;;;;4957410;28;20204;-69
2023/02/06 11:19:29;;;;;;;3.83;2.65;;;4.30;99.90;;;;;;4957375;28;20177;-70
2023/02/06 11:22:15;;;;;;;3.70;3.25;;;4.30;99.90;;;;;;4957336;28;20620;-67
2023/02/06 11:25:19;;;;;;;5.97;2.97;;;4.30;99.90;;;;;;4956900;28;20614;-68
2023/02/06 11:27:45;;;;;;;4.28;2.60;;;4.40;99.90;;;;;;4954753;29;20184;-69
2023/02/06 11:30:30;;;;;;;3.78;3.40;;;4.60;99.90;;;;;;4956081;28;20218;-67
2023/02/06 11:33:06;;;;;;;4.70;4.30;;;4.60;99.90;;;;;;4957098;28;20180;-70
2023/02/06 11:35:40;;;;;;;5.40;3.63;;;4.70;99.90;;;;;;4957351;28;20662;-70
2023/02/06 11:38:16;;;;;;;2.53;2.30;;;4.60;99.90;;;;;;4957823;28;20183;-69
2023/02/06 11:40:52;;;;;;;2.72;2.55;;;4.60;99.90;;;;;;4957654;28;20184;-69
2023/02/06 11:43:40;;;;;;;6.80;3.20;;;4.60;99.90;;;;;;4956929;28;20457;-69
2023/02/06 11:46:13;;;;;;;4.88;2.78;;;4.50;99.90;;;;;;4957542;28;20287;-67
2023/02/06 11:48:42;;;;;;;3.55;3.00;;;4.50;99.90;;;;;;4957720;28;20292;-68
2023/02/06 11:51:09;;;;;;;5.32;4.07;;;4.50;99.90;;;;;;4957875;28;20203;-67
2023/02/06 11:53:36;;;;;;;5.30;3.35;;;4.50;99.90;;;;;;4956423;28;20240;-69
2023/02/06 11:56:03;;;;;;;3.70;3.40;;;4.50;99.90;;;;;;4956804;28;20179;-68
2023/02/06 11:58:31;;;;;;;3.35;3.00;;;4.60;99.90;;;;;;4957628;28;20186;-68
2023/02/06 12:01:00;;;;;;;4.68;3.33;;;4.50;99.90;;;;;;4957052;28;20271;-68
2023/02/06 12:03:31;;;;;;;3.55;3.25;;;4.50;99.90;;;;;;4956131;28;20598;-68
2023/02/06 12:06:01;;;;;;;3.30;3.00;;;4.40;99.90;;;;;;4956685;28;20218;-69
2023/02/06 12:08:44;;;;;;;8.07;4.20;;;4.40;99.90;;;;;;4955858;28;20642;-68
2023/02/06 12:11:18;;;;;;;4.75;3.45;;;4.30;99.90;;;;;;4956888;28;20209;-67
2023/02/06 12:13:50;;;;;;;6.95;3.60;;;4.40;99.90;;;;;;4956110;28;20175;-67
2023/02/06 12:16:16;;;;;;;6.60;4.20;;;4.30;99.90;;;;;;4955691;28;20229;-68
2023/02/06 12:18:47;;;;;;;4.93;3.17;;;4.30;99.90;;;;;;4955233;28;20182;-69
2023/02/06 12:21:27;;;;;;;4.40;3.70;;;4.20;99.90;;;;;;4956426;28;20172;-69
2023/02/06 12:23:58;;;;;;;6.72;5.25;;;4.10;99.90;;;;;;4956040;28;20189;-68
2023/02/06 12:26:27;;;;;;;5.25;3.72;;;3.90;99.90;;;;;;4956086;28;20205;-68
2023/02/06 12:29:03;;;;;;;3.25;3.03;;;3.90;99.90;;;;;;4956213;28;20197;-68
2023/02/06 12:32:03;;;;;;;4.60;3.30;;;3.80;99.90;;;;;;4955955;28;20603;-70
2023/02/06 12:35:20;;;;;;;5.45;4.50;;;3.80;99.90;;;;;;4955431;28;20277;-67
2023/02/06 12:37:54;;;;;;;6.10;4.32;;;3.80;99.90;;;;;;4921247;28;20195;-68
2023/02/06 12:40:31;;;;;;;3.95;3.45;;;3.80;99.90;;;;;;4956136;28;20628;-67
2023/02/06 12:43:05;;;;;;;4.63;3.47;;;3.80;99.90;;;;;;4955860;28;20176;-67
2023/02/06 12:45:56;;;;;;;3.08;2.78;;;3.90;99.90;;;;;;4956094;28;20197;-67
2023/02/06 12:48:28;;;;;;;4.57;3.08;;;3.90;99.90;;;;;;4955959;28;20637;-67
2023/02/06 12:51:21;;;;;;;5.15;4.10;;;3.90;99.90;;;;;;4955992;28;20178;-67
2023/02/06 12:53:59;;;;;;;4.72;3.30;;;3.90;99.90;;;;;;4955564;28;20180;-67
2023/02/06 12:56:34;;;;;;;7.00;3.53;;;3.90;99.90;;;;;;4955920;28;20177;-68
2023/02/06 12:59:08;;;;;;;4.60;2.70;;;3.90;99.90;;;;;;4955833;28;20241;-67
2023/02/06 13:01:54;;;;;;;2.05;1.95;;;3.90;99.90;;;;;;4955620;28;20173;-68
2023/02/06 13:04:32;;;;;;;3.58;2.80;;;3.90;99.90;;;;;;4969050;28;20228;-67
2023/02/06 13:07:10;;;;;;;3.40;2.20;;;3.90;99.90;;;;;;4955626;28;20259;-68
2023/02/06 13:10:00;;;;;;;5.15;2.63;;;3.90;99.90;;;;;;4955606;28;20255;-67
2023/02/06 13:12:29;;;;;;;1.77;1.67;;;3.90;99.90;;;;;;4952395;28;20192;-67
2023/02/06 13:14:58;;;;;;;2.67;2.47;;;4.00;99.90;;;;;;4955269;28;20195;-68
2023/02/06 13:17:32;;;;;;;3.78;2.60;;;3.90;99.90;;;;;;4955577;28;20165;-67
2023/02/06 13:20:12;;;;;;;2.80;2.60;;;3.80;99.90;;;;;;4955474;28;20174;-67
2023/02/06 13:22:49;;;;;;;1.50;1.48;;;3.80;99.90;;;;;;4955661;28;20257;-66
2023/02/06 13:25:24;;;;;;;1.88;1.52;;;3.80;99.90;;;;;;4954447;28;20196;-68
2023/02/06 13:27:51;;;;;;;2.80;2.60;;;3.90;99.90;;;;;;4955039;28;20177;-68
2023/02/06 13:30:22;;;;;;;2.63;1.42;;;3.90;99.90;;;;;;4955626;28;20170;-67
2023/02/06 13:32:49;;;;;;;2.15;1.90;;;3.90;99.90;;;;;;4969890;28;20611;-68
2023/02/06 13:35:20;;;;;;;3.47;2.30;;;4.00;99.90;;;;;;4955117;28;20218;-67
2023/02/06 13:37:47;;;;;;;1.92;1.83;;;4.10;99.90;;;;;;4955373;28;20171;-69
2023/02/06 13:40:22;;;;;;;5.95;3.22;;;4.10;99.90;;;;;;4955401;28;20170;-68
2023/02/06 13:42:53;;;;;;;2.30;2.10;;;4.20;99.90;;;;;;4954957;28;20172;-68
2023/02/06 13:45:41;;;;;;;6.43;2.25;;;4.30;99.90;;;;;;4955082;28;20212;-69
2023/02/06 13:48:40;;;;;;;3.28;2.40;;;4.40;99.90;;;;;;4955258;28;20678;-68
2023/02/06 13:51:38;;;;;;;2.72;1.92;;;4.50;99.90;;;;;;4955213;28;20258;-68
2023/02/06 13:54:28;;;;;;;2.40;1.92;;;4.60;99.90;;;;;;4954862;28;20285;-68
2023/02/06 13:57:00;;;;;;;2.65;2.45;;;4.60;99.90;;;;;;4955352;28;20597;-68
2023/02/06 13:59:34;;;;;;;2.17;2.00;;;4.60;99.90;;;;;;4954957;28;20175;-69
2023/02/06 14:02:31;;;;;;;3.00;2.22;;;4.50;99.90;;;;;;4955167;28;20190;-68
2023/02/06 14:04:58;;;;;;;2.05;1.90;;;4.40;99.90;;;;;;4954693;28;20232;-69
2023/02/06 14:07:33;;;;;;;1.90;1.80;;;4.40;99.90;;;;;;4955098;28;20735;-68
2023/02/06 14:10:23;;;;;;;2.30;2.10;;;4.40;99.90;;;;;;4955192;28;20162;-68
2023/02/06 14:13:10;;;;;;;2.72;2.33;;;4.30;99.90;;;;;;4954928;28;20166;-68
2023/02/06 14:16:07;;;;;;;2.92;2.08;;;4.30;99.90;;;;;;4969755;28;20200;-69
2023/02/06 14:18:54;;;;;;;5.80;2.67;;;4.30;99.90;;;;;;4954814;28;20176;-69
2023/02/06 14:21:43;;;;;;;2.88;2.67;;;4.40;99.90;;;;;;4954886;28;20188;-69
2023/02/06 14:24:26;;;;;;;3.13;1.77;;;4.40;99.90;;;;;;4954432;28;20192;-69
2023/02/06 14:27:16;;;;;;;1.83;1.73;;;4.40;99.90;;;;;;4969590;28;20215;-69
2023/02/06 14:30:06;;;;;;;2.90;2.40;;;4.50;99.90;;;;;;4955069;28;20174;-69
2023/02/06 14:33:16;;;;;;;1.67;1.63;;;4.40;99.90;;;;;;4954728;28;20169;-68
2023/02/06 14:35:49;;;;;;;2.67;2.47;;;4.40;99.90;;;;;;4954029;28;20202;-66
2023/02/06 14:38:24;;;;;;;1.92;1.80;;;4.40;99.90;;;;;;4955104;28;20543;-68
2023/02/06 14:40:52;;;;;;;2.10;2.00;;;4.40;99.90;;;;;;4957834;28;20253;-66
2023/02/06 14:43:24;;;;;;;4.00;3.20;;;4.40;99.90;;;;;;4957684;28;20195;-67
2023/02/06 14:45:56;;;;;;;2.50;1.60;;;4.40;99.90;;;;;;4957388;28;20515;-68
2023/02/06 14:48:30;;;;;;;2.97;2.17;;;4.30;99.90;;;;;;4957745;29;20179;-67
2023/02/06 14:50:56;;;;;;;2.53;2.28;;;4.30;99.90;;;;;;4957771;29;20691;-69
2023/02/06 14:53:27;;;;;;;2.05;1.95;;;4.30;99.90;;;;;;4957638;28;20172;-70
2023/02/06 14:56:08;;;;;;;3.35;2.10;;;4.20;99.90;;;;;;4958048;28;20180;-70
2023/02/06 14:58:34;;;;;;;3.55;2.30;;;4.20;99.90;;;;;;4971734;28;20586;-69
2023/02/06 15:01:24;;;;;;;2.60;2.17;;;4.10;99.90;;;;;;4956787;28;20241;-69
2023/02/06 15:03:51;;;;;;;2.95;2.08;;;4.10;99.90;;;;;;4957412;28;20192;-68
2023/02/06 15:06:36;;;;;;;1.70;1.60;;;4.10;99.90;;;;;;4972487;28;20241;-68
2023/02/06 15:09:03;;;;;;;2.50;2.30;;;4.00;99.90;;;;;;4957707;28;20178;-68
2023/02/06 15:11:31;;;;;;;2.78;2.30;;;4.00;99.90;;;;;;4957773;28;20591;-69
2023/02/06 15:14:17;;;;;;;2.38;2.28;;;4.00;99.90;;;;;;4957204;28;20227;-67
2023/02/06 15:16:48;;;;;;;5.97;3.20;;;4.00;99.90;;;;;;4957739;28;20527;-70
2023/02/06 15:19:23;;;;;;;2.67;2.47;;;4.00;99.90;;;;;;4957382;28;20657;-68
2023/02/06 15:21:54;;;;;;;1.92;1.80;;;4.00;99.90;;;;;;4956202;29;20176;-68
2023/02/06 15:24:53;;;;;;;2.17;1.92;;;4.00;99.90;;;;;;4957189;28;20193;-70
2023/02/06 15:27:19;;;;;;;2.00;1.45;;;4.00;99.90;;;;;;4940516;29;20742;-68
2023/02/06 15:29:49;;;;;;;2.90;2.30;;;3.90;99.90;;;;;;4957044;28;20174;-67
2023/02/06 15:32:25;;;;;;;2.03;1.92;;;3.90;99.90;;;;;;4957193;28;20172;-66
2023/02/06 15:34:51;;;;;;;4.20;2.47;;;3.90;99.90;;;;;;4956378;28;20215;-68
2023/02/06 15:37:25;;;;;;;2.53;2.33;;;3.90;99.90;;;;;;4957385;28;20181;-67
2023/02/06 15:39:52;;;;;;;1.88;1.77;;;3.80;99.90;;;;;;4957047;28;20181;-69
2023/02/06 15:42:19;;;;;;;1.60;1.50;;;3.80;99.90;;;;;;4957134;29;20170;-67
2023/02/06 15:44:47;;;;;;;2.58;1.80;;;3.80;99.90;;;;;;4956206;28;20206;-67
2023/02/06 15:47:15;;;;;;;4.45;2.33;;;3.70;99.90;;;;;;4956816;28;20209;-68
2023/02/06 15:49:43;;;;;;;9.23;1.75;;;3.80;99.90;;;;;;4956446;28;20173;-68
2023/02/06 15:52:13;;;;;;;2.90;2.60;;;3.70;99.90;;;;;;4955289;28;20178;-69
2023/02/06 15:54:43;;;;;;;2.40;2.20;;;3.70;99.90;;;;;;4955956;28;20225;-68
2023/02/06 15:57:34;;;;;;;1.85;1.75;;;3.70;99.90;;;;;;4956793;28;20175;-68
2023/02/06 16:00:00;;;;;;;2.47;1.75;;;3.70;99.90;;;;;;4956397;29;20185;-68
2023/02/06 16:02:35;;;;;;;1.98;1.88;;;3.70;99.90;;;;;;4956542;28;20568;-67
2023/02/06 16:05:01;;;;;;;2.10;1.83;;;3.60;99.90;;;;;;4955667;28;20412;-71
2023/02/06 16:07:30;;;;;;;1.75;1.65;;;3.60;99.90;;;;;;4956704;28;20203;-69
2023/02/06 16:10:22;;;;;;;2.88;2.63;;;3.60;99.90;;;;;;4956075;28;20186;-68
2023/02/06 16:12:50;;;;;;;2.35;2.15;;;3.70;99.90;;;;;;4956139;28;20260;-73
2023/02/06 16:15:30;;;;;;;2.15;1.77;;;3.60;99.90;;;;;;4955927;28;20202;-69
2023/02/06 16:17:58;;;;;;;1.58;1.52;;;3.70;99.90;;;;;;4956131;28;20215;-69
2023/02/06 16:20:41;;;;;;;5.53;2.30;;;3.70;99.90;;;;;;4955111;28;20259;-69
2023/02/06 16:23:27;;;;;;;3.28;2.25;;;3.60;99.90;;;;;;4936835;29;20179;-67
2023/02/06 16:26:15;;;;;;;1.63;1.52;;;3.60;99.90;;;;;;4936924;29;20272;-67
2023/02/06 16:29:08;;;;;;;1.80;1.70;;;3.60;99.90;;;;;;4944719;29;20255;-66
2023/02/06 16:31:37;;;;;;;1.65;1.55;;;3.60;99.90;;;;;;4956226;29;20573;-66
2023/02/06 16:34:35;;;;;;;2.20;2.10;;;3.60;99.90;;;;;;4955467;28;20698;-65
2023/02/06 16:37:09;;;;;;;2.53;2.05;;;3.70;99.90;;;;;;4956003;28;20263;-69
2023/02/06 16:39:35;;;;;;;4.50;2.08;;;3.60;99.90;;;;;;4955658;28;20243;-65
2023/02/06 16:42:01;;;;;;;2.40;2.30;;;3.60;99.90;;;;;;4955156;28;20184;-66
2023/02/06 16:44:26;;;;;;;1.30;1.20;;;3.70;99.90;;;;;;4955537;28;20229;-65
2023/02/06 16:46:52;;;;;;;1.53;1.43;;;3.60;99.90;;;;;;4955698;28;20196;-65
2023/02/06 16:49:20;;;;;;;1.30;1.20;;;3.70;99.90;;;;;;4949497;28;20178;-65
2023/02/06 16:51:47;;;;;;;1.55;1.45;;;3.70;99.90;;;;;;4955302;28;20462;-66
2023/02/06 16:54:28;;;;;;;2.05;1.38;;;3.70;99.90;;;;;;4955271;28;20560;-67
2023/02/06 16:56:56;;;;;;;1.70;1.63;;;3.70;99.90;;;;;;4954987;28;20184;-67
2023/02/06 16:59:22;;;;;;;2.42;2.15;;;3.70;99.90;;;;;;4955074;28;20180;-64
2023/02/06 17:01:48;;;;;;;2.05;1.70;;;3.70;99.90;;;;;;4955215;28;20184;-65
2023/02/06 17:04:13;;;;;;;3.13;2.53;;;3.70;99.90;;;;;;4954938;28;20192;-67
2023/02/06 17:06:39;;;;;;;1.70;1.60;;;3.70;99.90;;;;;;4940333;28;20204;-67
2023/02/06 17:09:09;;;;;;;2.20;2.10;;;3.70;99.90;;;;;;4937327;29;20185;-65
2023/02/06 17:11:36;;;;;;;2.25;1.83;;;3.70;99.90;;;;;;4940264;29;20515;-70
2023/02/06 17:14:02;;;;;;;1.75;1.65;;;3.70;99.90;;;;;;4953625;28;20201;-74
2023/02/06 17:16:29;;;;;;;1.67;1.45;;;3.60;99.90;;;;;;4955303;28;20180;-66
2023/02/06 17:18:55;;;;;;;2.92;2.50;;;3.60;99.90;;;;;;4954821;28;20327;-67
2023/02/06 17:21:22;;;;;;;2.60;2.40;;;3.60;99.90;;;;;;4955020;29;20264;-68
2023/02/06 17:23:49;;;;;;;2.25;2.15;;;3.60;99.90;;;;;;4954575;28;20210;-67
2023/02/06 17:26:18;;;;;;;2.60;2.42;;;3.50;99.90;;;;;;4954421;28;20670;-68
2023/02/06 17:28:44;;;;;;;1.95;1.65;;;3.50;99.90;;;;;;4954999;28;20169;-65
2023/02/06 17:31:10;;;;;;;4.15;2.70;;;3.50;99.90;;;;;;4955345;28;20184;-65
2023/02/06 17:33:36;;;;;;;2.90;2.60;;;3.40;99.90;;;;;;4954908;28;20169;-68
2023/02/06 17:36:04;;;;;;;3.47;2.20;;;3.40;99.90;;;;;;4945254;28;20673;-68
2023/02/06 17:38:29;;;;;;;2.70;2.50;;;3.30;99.90;;;;;;4954877;28;20172;-68
2023/02/06 17:40:55;;;;;;;5.10;3.00;;;3.30;99.90;;;;;;4954501;28;20268;-65
2023/02/06 17:43:21;;;;;;;2.13;2.00;;;3.30;99.90;;;;;;4953753;28;20215;-68
2023/02/06 17:45:47;;;;;;;2.90;2.70;;;3.30;99.90;;;;;;4954189;28;20207;-69
2023/02/06 17:48:12;;;;;;;6.03;3.20;;;3.30;99.90;;;;;;4955005;29;20165;-67
2023/02/06 17:50:40;;;;;;;6.03;2.80;;;3.20;99.90;;;;;;4954468;29;20179;-68
2023/02/06 17:53:09;;;;;;;3.45;2.92;;;3.20;99.90;;;;;;4954715;29;20169;-67
2023/02/06 17:55:35;;;;;;;2.72;2.53;;;3.10;99.90;;;;;;4953460;28;20292;-68
2023/02/06 17:58:01;;;;;;;2.45;2.25;;;3.10;99.90;;;;;;4954812;28;20591;-66
2023/02/06 18:00:27;;;;;;;2.28;2.08;;;3.10;99.90;;;;;;4954803;28;20183;-67
2023/02/06 18:02:54;;;;;;;2.77;2.60;;;3.10;99.90;;;;;;4969123;28;20185;-67
2023/02/06 18:05:23;;;;;;;2.50;2.30;;;3.10;99.90;;;;;;4954655;28;20232;-65
2023/02/06 18:07:50;;;;;;;2.13;1.92;;;3.10;99.90;;;;;;4954401;28;20180;-66
2023/02/06 18:10:18;;;;;;;2.70;2.50;;;3.10;99.90;;;;;;4954819;28;20181;-65
2023/02/06 18:12:43;;;;;;;3.42;2.25;;;3.10;99.90;;;;;;4953988;28;20250;-66
2023/02/06 18:15:09;;;;;;;2.93;2.73;;;3.10;99.90;;;;;;4957326;28;20223;-64
2023/02/06 18:17:35;;;;;;;2.55;2.35;;;3.10;99.90;;;;;;4958223;28;20177;-60
2023/02/06 18:20:01;;;;;;;3.60;3.20;;;3.10;99.90;;;;;;4958556;29;20180;-65
2023/02/06 18:22:27;;;;;;;2.72;2.53;;;3.10;99.90;;;;;;4957877;28;20209;-66